KABQ

Albuquerque International Sunport Airport

Albuquerque, New Mexico, USA
METAR KABQ 210852Z 29005KT 10SM OVC130 26/11 A3018 RMK AO2 SLP114 T02610111 55004
Observed Flight Rules
Jul-21 @ 08:52 UTC (an hour ago) Visual Flight Rules
Wind Visibility Clouds
290° at 5 knots 10 miles
  • Overcast at 13,000' AGL
Temperatures Readings
Current 26°C / 79°F
Dewpoint 11°C / 52°F
Humidity 39%
Altimeter 30.18" Hg
Pressure 1011.4 hPa
Elevation 1618
METAR KABQ 210852Z 29005KT 10SM OVC130 26/11 A3018 RMK AO2 SLP114 T02610111 55004
Observed Flight Rules
Jul-21 @ 08:52 UTC
(an hour ago)
VFR
Wind Visibility
290° at 5 knots 10 miles
Clouds
  • Overcast at 13,000' AGL
Temperature Dewpoint
26°C / 79°F 11°C / 52°F
Humidity Altimeter Pressure
39% 30.18" Hg 1011.4 hPa